Terminal Aerodrome Forecast
Issued by NWS

Current Version | Previous Version | Graphics & Text | Print | Product List | Glossary On
Versions: 1 2 3 4 5 6 7 8 9 10 11 12 13 14 15 16 17 18
598
FTUS41 KPBZ 292323
TAFHLG
TAF
KHLG 292323Z 3000/3024 22004KT P6SM BKN200
     FM300700 15005KT P6SM VCSH BKN080
     FM300900 13006KT 4SM -SHRA BR OVC030
     FM301300 16008KT 3SM -SHRA OVC008
     FM301900 24010G16KT P6SM VCSH BKN025=

USA.gov is the U.S. government's official web portal to all federal, state and local government web resources and services.